createdAt,value
2017-09-06T00:01:17.343Z,91.52
2017-09-06T00:03:44.971Z,91.58
2017-09-06T00:06:12.640Z,91.55
2017-09-06T00:08:40.610Z,91.70
2017-09-06T00:11:08.205Z,91.70
2017-09-06T00:13:36.291Z,91.79
2017-09-06T00:16:03.913Z,91.52
2017-09-06T00:18:31.516Z,91.43
2017-09-06T00:20:59.159Z,91.49
2017-09-06T00:23:26.763Z,91.52
2017-09-06T00:25:54.408Z,91.66
2017-09-06T00:28:21.994Z,91.92
2017-09-06T00:30:49.593Z,91.83
2017-09-06T00:33:17.213Z,91.79
2017-09-06T00:35:44.847Z,91.52
2017-09-06T00:38:12.552Z,91.44
2017-09-06T00:40:40.244Z,91.39
2017-09-06T00:45:41.811Z,92.03
2017-09-06T00:48:09.396Z,91.95
2017-09-06T00:50:37.015Z,91.94
2017-09-06T00:53:04.621Z,91.85
2017-09-06T00:55:32.250Z,92.11
2017-09-06T00:57:59.841Z,91.97
2017-09-06T01:00:27.494Z,91.85
2017-09-06T01:02:55.101Z,92.06
2017-09-06T01:05:22.723Z,92.02
2017-09-06T01:07:50.346Z,91.89
2017-09-06T01:10:17.933Z,91.82
2017-09-06T01:12:45.525Z,91.88
2017-09-06T01:15:13.240Z,91.84
2017-09-06T01:17:40.842Z,91.75
2017-09-06T01:20:08.472Z,91.96
2017-09-06T01:22:36.187Z,91.93
2017-09-06T01:25:03.825Z,92.02
2017-09-06T01:27:31.464Z,92.12
2017-09-06T01:29:59.128Z,92.02
2017-09-06T01:32:26.752Z,91.98
2017-09-06T01:34:54.380Z,92.05
2017-09-06T01:37:22.123Z,92.14
2017-09-06T01:39:49.745Z,92.28
2017-09-06T01:42:17.365Z,92.96
2017-09-06T01:44:44.961Z,93.06
2017-09-06T01:47:12.838Z,93.40
2017-09-06T01:49:41.652Z,93.51
2017-09-06T01:52:09.281Z,93.39
2017-09-06T01:54:36.999Z,93.31
2017-09-06T01:57:04.715Z,93.28
2017-09-06T01:59:32.750Z,93.32
2017-09-06T02:02:00.965Z,93.40
2017-09-06T02:04:28.578Z,93.45
2017-09-06T02:06:56.199Z,93.31
2017-09-06T02:09:23.864Z,93.43
2017-09-06T02:11:51.489Z,93.45
2017-09-06T02:14:19.221Z,93.50
2017-09-06T02:16:46.944Z,93.59
2017-09-06T02:19:14.559Z,93.53
2017-09-06T02:21:42.784Z,93.46
2017-09-06T02:24:10.392Z,93.46
2017-09-06T02:26:38.014Z,93.40
2017-09-06T02:29:05.620Z,93.33
2017-09-06T02:31:33.234Z,93.23
2017-09-06T02:34:01.787Z,93.02
2017-09-06T02:36:29.941Z,92.84
2017-09-06T02:38:57.542Z,92.77
2017-09-06T02:41:25.735Z,92.95
2017-09-06T02:43:54.492Z,92.93
2017-09-06T02:46:23.204Z,92.87
2017-09-06T02:48:50.801Z,92.79
2017-09-06T02:51:18.390Z,92.70
2017-09-06T02:53:45.984Z,92.99
2017-09-06T02:56:13.739Z,93.16
2017-09-06T02:58:41.338Z,93.46
2017-09-06T03:01:08.960Z,93.47
2017-09-06T03:03:36.559Z,93.51
2017-09-06T03:06:04.232Z,93.65
2017-09-06T03:08:31.817Z,93.74
2017-09-06T03:10:59.446Z,93.83
2017-09-06T03:13:27.064Z,93.79
2017-09-06T03:15:55.145Z,93.76
2017-09-06T03:18:22.734Z,93.66
2017-09-06T03:20:50.328Z,93.55
2017-09-06T03:23:18.056Z,93.36
2017-09-06T03:25:45.646Z,93.19
2017-09-06T03:28:14.345Z,93.08
2017-09-06T03:30:41.980Z,93.02
2017-09-06T03:33:09.608Z,92.89
2017-09-06T03:35:37.198Z,92.84
2017-09-06T03:38:04.810Z,92.73
2017-09-06T03:40:32.420Z,92.61
2017-09-06T03:43:00.026Z,92.74
2017-09-06T03:45:27.624Z,92.78
2017-09-06T03:47:55.259Z,92.69
2017-09-06T03:50:22.848Z,92.68
2017-09-06T03:52:50.443Z,92.74
2017-09-06T03:55:18.035Z,92.83
2017-09-06T03:57:45.671Z,92.86
2017-09-06T04:00:13.278Z,92.92
2017-09-06T04:02:40.934Z,93.00
2017-09-06T04:05:08.638Z,93.02
2017-09-06T04:07:36.392Z,93.09
2017-09-06T04:10:03.995Z,93.13
2017-09-06T04:12:31.635Z,93.42
2017-09-06T04:14:59.219Z,93.52
2017-09-06T04:17:26.862Z,93.55
2017-09-06T04:19:54.471Z,93.54
2017-09-06T04:22:22.124Z,93.43
2017-09-06T04:24:49.711Z,93.28
2017-09-06T04:27:17.501Z,93.34
2017-09-06T04:29:45.166Z,93.18
2017-09-06T04:32:12.800Z,93.02
2017-09-06T04:34:40.370Z,93.03
2017-09-06T04:37:08.250Z,92.99
2017-09-06T04:39:35.878Z,92.75
2017-09-06T04:42:03.504Z,92.65
2017-09-06T04:44:31.168Z,92.58
2017-09-06T04:46:58.770Z,92.80
2017-09-06T04:49:26.398Z,92.71
2017-09-06T04:51:54.451Z,92.71
2017-09-06T04:54:22.093Z,92.91
2017-09-06T04:56:49.706Z,92.85
2017-09-06T04:59:17.336Z,92.97
2017-09-06T05:01:44.932Z,92.89
2017-09-06T05:04:12.566Z,92.81
2017-09-06T05:06:40.170Z,92.87
2017-09-06T05:09:07.800Z,93.44
2017-09-06T05:11:35.427Z,93.61
2017-09-06T05:14:03.048Z,93.66
2017-09-06T05:16:31.182Z,93.66
2017-09-06T05:19:00.223Z,93.48
2017-09-06T05:21:27.876Z,93.42
2017-09-06T05:23:55.515Z,93.39
2017-09-06T05:26:23.122Z,93.67
2017-09-06T05:28:50.733Z,93.72
2017-09-06T05:31:18.457Z,93.67
2017-09-06T05:33:46.043Z,93.70
2017-09-06T05:36:13.644Z,93.53
2017-09-06T05:38:41.249Z,93.54
2017-09-06T05:41:08.852Z,93.33
2017-09-06T05:43:36.619Z,93.30
2017-09-06T05:46:04.200Z,93.37
2017-09-06T05:48:31.954Z,93.33
2017-09-06T05:50:59.560Z,93.42
2017-09-06T05:53:27.189Z,93.44
2017-09-06T05:55:54.762Z,93.53
2017-09-06T05:58:22.371Z,93.47
2017-09-06T06:00:49.981Z,93.32
2017-09-06T06:03:17.737Z,93.17
2017-09-06T06:05:45.344Z,93.12
2017-09-06T06:08:12.975Z,92.95
2017-09-06T06:10:40.571Z,92.74
2017-09-06T06:13:08.341Z,92.77
2017-09-06T06:15:35.946Z,92.72
2017-09-06T06:18:03.583Z,92.64
2017-09-06T06:20:31.185Z,92.56
2017-09-06T06:22:58.807Z,92.39
2017-09-06T06:25:27.622Z,92.16
2017-09-06T06:27:55.221Z,92.14
2017-09-06T06:30:22.852Z,92.13
2017-09-06T06:32:50.928Z,92.26
2017-09-06T06:35:18.582Z,92.37
2017-09-06T06:37:46.191Z,92.09
2017-09-06T06:40:13.822Z,91.95
2017-09-06T06:42:42.366Z,91.88
2017-09-06T06:45:09.991Z,91.83
2017-09-06T06:47:38.164Z,91.76
2017-09-06T06:50:05.819Z,91.80
2017-09-06T06:52:33.422Z,92.06
2017-09-06T06:55:01.065Z,91.83
2017-09-06T06:57:28.676Z,91.97
2017-09-06T06:59:56.303Z,91.99
2017-09-06T07:02:24.045Z,91.90
2017-09-06T07:04:51.650Z,91.50
2017-09-06T07:07:19.250Z,91.54
2017-09-06T07:09:46.899Z,91.39
2017-09-06T07:12:14.508Z,91.01
2017-09-06T07:14:42.177Z,90.93
2017-09-06T07:17:09.788Z,90.82
2017-09-06T07:19:37.390Z,90.51
2017-09-06T07:22:05.641Z,90.85
2017-09-06T07:24:33.248Z,90.78
2017-09-06T07:27:00.963Z,90.10
2017-09-06T07:29:28.593Z,89.72
2017-09-06T07:31:56.196Z,89.41
2017-09-06T07:34:23.941Z,89.17
2017-09-06T07:36:51.702Z,88.18
2017-09-06T07:39:19.319Z,87.33
2017-09-06T07:41:46.935Z,87.61
2017-09-06T07:44:14.958Z,87.19
2017-09-06T07:46:42.566Z,86.29
2017-09-06T07:49:10.864Z,85.88
2017-09-06T07:51:38.510Z,85.66
2017-09-06T07:54:06.447Z,84.90
2017-09-06T07:56:34.069Z,84.58
2017-09-06T07:59:01.682Z,84.04
2017-09-06T08:01:29.331Z,83.03
2017-09-06T08:03:56.931Z,83.32
2017-09-06T08:06:24.542Z,83.65
2017-09-06T08:08:52.247Z,84.57
2017-09-06T08:11:20.048Z,85.47
2017-09-06T08:13:47.644Z,87.53
2017-09-06T08:16:15.257Z,88.90
2017-09-06T08:18:42.857Z,89.62
2017-09-06T08:21:10.619Z,90.97
2017-09-06T08:23:38.219Z,91.22
2017-09-06T08:26:05.850Z,91.99
2017-09-06T08:28:33.592Z,92.33
2017-09-06T08:31:01.232Z,92.32
2017-09-06T08:33:28.857Z,92.88
2017-09-06T08:35:57.760Z,92.70
2017-09-06T08:38:25.516Z,92.54
2017-09-06T08:40:53.151Z,92.64
2017-09-06T08:43:20.748Z,91.97
2017-09-06T08:45:48.755Z,92.16
2017-09-06T08:48:16.363Z,91.57
2017-09-06T08:50:43.996Z,92.06
2017-09-06T08:53:11.603Z,92.13
2017-09-06T08:55:39.242Z,91.76
2017-09-06T08:58:06.840Z,91.27
2017-09-06T09:00:42.307Z,91.34
2017-09-06T09:03:09.991Z,91.40
2017-09-06T09:05:37.621Z,91.04
2017-09-06T09:08:05.708Z,91.29
2017-09-06T09:10:33.778Z,91.33
2017-09-06T09:13:01.376Z,90.94
2017-09-06T09:15:29.040Z,90.70
2017-09-06T09:17:56.648Z,90.42
2017-09-06T09:20:24.742Z,89.69
2017-09-06T09:22:52.361Z,89.50
2017-09-06T09:25:19.965Z,88.98
2017-09-06T09:27:49.088Z,88.96
2017-09-06T09:30:16.681Z,87.81
2017-09-06T09:32:44.750Z,86.31
2017-09-06T09:35:13.578Z,85.91
2017-09-06T09:37:41.586Z,87.17
2017-09-06T09:40:09.188Z,86.46
2017-09-06T09:42:36.821Z,84.95
2017-09-06T09:45:05.987Z,84.74
2017-09-06T09:47:35.016Z,82.80
2017-09-06T09:50:02.639Z,85.15
2017-09-06T09:52:30.745Z,83.97
2017-09-06T09:54:58.364Z,81.95
2017-09-06T09:57:26.015Z,82.16
2017-09-06T09:59:53.697Z,80.85
2017-09-06T10:02:21.316Z,82.41
2017-09-06T10:04:49.018Z,81.17
2017-09-06T10:07:16.667Z,78.29
2017-09-06T10:09:44.267Z,78.21
2017-09-06T10:12:12.047Z,79.14
2017-09-06T10:14:39.756Z,77.34
2017-09-06T10:17:07.433Z,76.94
2017-09-06T10:19:35.252Z,76.92
2017-09-06T10:22:02.847Z,77.45
2017-09-06T10:24:30.497Z,75.34
2017-09-06T10:26:59.434Z,75.96
2017-09-06T10:29:27.029Z,76.73
2017-09-06T10:31:54.639Z,77.00
2017-09-06T10:34:22.444Z,75.43
2017-09-06T10:36:50.169Z,78.50
2017-09-06T10:39:17.770Z,75.74
2017-09-06T10:41:45.397Z,72.43
2017-09-06T10:44:13.018Z,75.91
2017-09-06T10:46:40.639Z,76.00
2017-09-06T10:49:08.246Z,72.60
2017-09-06T10:51:35.967Z,70.82
2017-09-06T10:54:04.655Z,70.50
2017-09-06T10:56:32.326Z,71.99
2017-09-06T10:58:59.961Z,73.04
2017-09-06T11:01:27.572Z,72.39
2017-09-06T11:03:55.223Z,72.39
2017-09-06T11:06:23.845Z,73.03
2017-09-06T11:08:51.485Z,72.11
2017-09-06T11:11:20.420Z,70.53
2017-09-06T11:13:49.282Z,70.38
2017-09-06T11:16:16.900Z,68.68
2017-09-06T11:18:44.528Z,71.02
2017-09-06T11:21:12.167Z,69.84
2017-09-06T11:23:39.926Z,69.26
2017-09-06T11:26:07.551Z,69.88
2017-09-06T11:28:35.186Z,69.29
2017-09-06T11:31:02.784Z,68.26
2017-09-06T11:33:30.438Z,71.25
2017-09-06T11:35:58.040Z,69.19
2017-09-06T11:38:25.740Z,68.93
2017-09-06T11:40:53.352Z,66.71
2017-09-06T11:43:20.982Z,68.95
2017-09-06T11:45:48.599Z,68.81
2017-09-06T11:48:16.235Z,65.39
2017-09-06T11:50:43.848Z,67.97
2017-09-06T11:53:11.491Z,67.11
2017-09-06T11:55:39.217Z,66.96
2017-09-06T11:58:06.902Z,66.88
2017-09-06T12:00:34.598Z,66.82
2017-09-06T12:03:02.243Z,67.12
2017-09-06T12:05:29.849Z,67.16
2017-09-06T12:07:57.469Z,69.29
2017-09-06T12:10:25.072Z,68.42
2017-09-06T12:12:52.685Z,63.71
2017-09-06T12:15:20.549Z,62.75
2017-09-06T12:17:48.173Z,62.95
2017-09-06T12:20:15.793Z,60.88
2017-09-06T12:22:43.417Z,59.75
2017-09-06T12:25:11.021Z,59.27
2017-09-06T12:27:38.650Z,57.93
2017-09-06T12:30:06.269Z,57.43
2017-09-06T12:32:33.893Z,61.77
2017-09-06T12:35:01.546Z,58.81
2017-09-06T12:37:29.168Z,56.78
2017-09-06T12:39:56.764Z,59.47
2017-09-06T12:42:24.383Z,57.54
2017-09-06T12:44:52.009Z,58.61
2017-09-06T12:47:19.700Z,57.43
2017-09-06T12:49:47.329Z,59.67
2017-09-06T12:52:15.028Z,57.72
2017-09-06T12:54:42.743Z,58.45
2017-09-06T12:57:10.359Z,59.16
2017-09-06T12:59:37.963Z,61.53
2017-09-06T13:02:05.573Z,63.79
2017-09-06T13:04:33.161Z,60.27
2017-09-06T13:07:02.058Z,59.01
2017-09-06T13:09:29.629Z,60.90
2017-09-06T13:11:57.198Z,58.88
2017-09-06T13:14:24.780Z,58.23
2017-09-06T13:16:52.340Z,57.14
2017-09-06T13:19:19.917Z,57.86
2017-09-06T13:21:47.521Z,58.22
2017-09-06T13:24:15.357Z,57.10
2017-09-06T13:26:42.921Z,54.99
2017-09-06T13:29:10.528Z,57.64
2017-09-06T13:31:38.103Z,54.55
2017-09-06T13:34:05.678Z,55.65
2017-09-06T13:36:33.226Z,55.33
2017-09-06T13:39:00.885Z,57.09
2017-09-06T13:41:28.503Z,57.66
2017-09-06T13:43:56.095Z,57.03
2017-09-06T13:46:23.675Z,54.49
2017-09-06T13:48:51.250Z,56.99
2017-09-06T13:51:18.830Z,53.50
2017-09-06T13:53:46.790Z,54.58
2017-09-06T13:56:14.362Z,57.25
2017-09-06T13:58:42.792Z,58.10
2017-09-06T14:01:10.359Z,59.79
2017-09-06T14:03:37.905Z,53.37
2017-09-06T14:06:05.465Z,54.59
2017-09-06T14:08:33.037Z,56.31
2017-09-06T14:11:00.767Z,55.21
2017-09-06T14:13:28.357Z,58.82
2017-09-06T14:15:55.941Z,58.32
2017-09-06T14:18:23.516Z,57.41
2017-09-06T14:20:51.107Z,57.08
2017-09-06T14:23:18.693Z,59.14
2017-09-06T14:25:46.790Z,57.51
2017-09-06T14:28:14.369Z,56.34
2017-09-06T14:30:41.927Z,54.98
2017-09-06T14:33:09.462Z,56.63
2017-09-06T14:35:37.048Z,55.45
2017-09-06T14:38:04.615Z,53.97
2017-09-06T14:40:32.222Z,53.42
2017-09-06T14:42:59.798Z,53.79
2017-09-06T14:45:27.378Z,52.58
2017-09-06T14:47:54.951Z,54.91
2017-09-06T14:50:22.664Z,56.97
2017-09-06T14:52:50.228Z,55.23
2017-09-06T14:55:17.815Z,57.71
2017-09-06T14:57:45.369Z,56.10
2017-09-06T15:00:12.961Z,57.11
2017-09-06T15:02:40.566Z,55.38
2017-09-06T15:05:08.167Z,54.76
2017-09-06T15:07:35.756Z,52.15
2017-09-06T15:10:03.318Z,53.56
2017-09-06T15:12:30.897Z,50.95
2017-09-06T15:14:58.513Z,51.81
2017-09-06T15:17:26.114Z,51.51
2017-09-06T15:19:53.862Z,57.27
2017-09-06T15:22:21.442Z,57.74
2017-09-06T15:24:49.005Z,59.84
2017-09-06T15:27:16.657Z,62.12
2017-09-06T15:29:44.217Z,60.89
2017-09-06T15:32:12.030Z,61.28
2017-09-06T15:34:39.611Z,61.47
2017-09-06T15:37:07.185Z,63.45
2017-09-06T15:39:34.736Z,63.45
2017-09-06T15:42:02.363Z,63.04
2017-09-06T15:44:29.989Z,64.75
2017-09-06T15:46:57.572Z,63.32
2017-09-06T15:49:25.228Z,62.64
2017-09-06T15:51:52.852Z,63.79
2017-09-06T15:54:20.436Z,63.74
2017-09-06T15:56:48.022Z,63.75
2017-09-06T15:59:16.242Z,63.96
2017-09-06T16:01:44.361Z,63.66
2017-09-06T16:04:12.379Z,64.45
2017-09-06T16:06:40.760Z,64.50
2017-09-06T16:09:08.414Z,65.20
2017-09-06T16:11:36.067Z,64.45
2017-09-06T16:14:03.668Z,64.70
2017-09-06T16:16:31.254Z,64.17
2017-09-06T16:18:59.178Z,63.76
2017-09-06T16:21:26.813Z,65.26
2017-09-06T16:23:54.382Z,65.37
2017-09-06T16:26:21.960Z,66.11
2017-09-06T16:28:49.540Z,66.21
2017-09-06T16:31:17.117Z,66.35
2017-09-06T16:33:44.666Z,66.75
2017-09-06T16:36:13.905Z,67.02
2017-09-06T16:38:41.490Z,66.74
2017-09-06T16:41:11.315Z,68.19
2017-09-06T16:43:38.922Z,67.67
2017-09-06T16:46:06.516Z,68.04
2017-09-06T16:48:34.070Z,69.26
2017-09-06T16:51:01.718Z,68.74
2017-09-06T16:53:29.593Z,69.73
2017-09-06T16:58:31.409Z,69.35
2017-09-06T17:00:59.496Z,69.38
2017-09-06T17:03:28.543Z,69.56
2017-09-06T17:05:56.118Z,69.65
2017-09-06T17:08:23.714Z,70.11
2017-09-06T17:10:51.349Z,70.25
2017-09-06T17:13:18.945Z,71.20
2017-09-06T17:15:46.504Z,70.76
2017-09-06T17:18:14.092Z,70.63
2017-09-06T17:20:41.656Z,70.92
2017-09-06T17:23:11.491Z,71.54
2017-09-06T17:25:39.094Z,71.63
2017-09-06T17:28:06.676Z,71.54
2017-09-06T17:30:34.229Z,71.69
2017-09-06T17:33:01.804Z,71.94
2017-09-06T17:35:29.387Z,72.77
2017-09-06T17:37:57.119Z,72.89
2017-09-06T17:40:24.686Z,72.87
2017-09-06T17:42:52.301Z,73.73
2017-09-06T17:45:21.077Z,72.40
2017-09-06T17:47:48.659Z,71.74
2017-09-06T17:50:16.233Z,71.06
2017-09-06T17:52:43.842Z,70.19
2017-09-06T17:55:11.437Z,69.30
2017-09-06T17:57:39.191Z,68.74
2017-09-06T18:00:06.931Z,67.80
2017-09-06T18:02:35.852Z,67.57
2017-09-06T18:05:03.443Z,67.19
2017-09-06T18:07:31.075Z,67.11
2017-09-06T18:09:58.669Z,66.54
2017-09-06T18:12:27.796Z,66.87
2017-09-06T18:14:55.434Z,66.26
2017-09-06T18:17:23.823Z,67.39
2017-09-06T18:19:51.388Z,67.35
2017-09-06T18:22:19.106Z,68.00
2017-09-06T18:24:46.737Z,67.53
2017-09-06T18:27:14.352Z,67.65
2017-09-06T18:29:41.890Z,68.11
2017-09-06T18:32:09.477Z,66.71
2017-09-06T18:34:37.204Z,67.14
2017-09-06T18:37:04.802Z,67.16
2017-09-06T18:39:32.473Z,66.74
2017-09-06T18:42:00.426Z,66.75
2017-09-06T18:44:28.024Z,67.08
2017-09-06T18:46:55.623Z,66.59
2017-09-06T18:49:23.207Z,67.04
2017-09-06T18:51:50.786Z,66.51
2017-09-06T18:54:19.690Z,67.77
2017-09-06T18:56:48.232Z,67.73
2017-09-06T18:59:15.831Z,67.27
2017-09-06T19:01:43.382Z,67.03
2017-09-06T19:04:10.992Z,67.35
2017-09-06T19:06:38.536Z,68.00
2017-09-06T19:09:06.148Z,67.31
2017-09-06T19:11:33.716Z,67.70
2017-09-06T19:14:02.723Z,67.86
2017-09-06T19:16:30.311Z,67.73
2017-09-06T19:18:57.934Z,67.29
2017-09-06T19:21:25.623Z,67.74
2017-09-06T19:23:53.255Z,66.75
2017-09-06T19:26:22.955Z,66.93
2017-09-06T19:28:50.531Z,67.07
2017-09-06T19:31:18.130Z,66.81
2017-09-06T19:33:45.788Z,66.79
2017-09-06T19:36:13.376Z,66.41
2017-09-06T19:38:41.338Z,66.84
2017-09-06T19:41:10.533Z,66.43
2017-09-06T19:43:38.190Z,66.66
2017-09-06T19:46:06.527Z,66.06
2017-09-06T19:48:34.124Z,66.17
2017-09-06T19:51:03.091Z,66.30
2017-09-06T19:53:30.748Z,66.01
2017-09-06T19:55:59.972Z,66.93
2017-09-06T19:58:27.552Z,65.96
2017-09-06T20:00:55.210Z,65.82
2017-09-06T20:03:22.825Z,65.34
2017-09-06T20:05:50.449Z,65.30
2017-09-06T20:08:18.021Z,66.03
2017-09-06T20:10:45.619Z,64.82
2017-09-06T20:13:13.228Z,64.25
2017-09-06T20:15:40.904Z,64.52
2017-09-06T20:18:08.478Z,64.89
2017-09-06T20:20:36.102Z,64.17
2017-09-06T20:23:03.699Z,63.48
2017-09-06T20:25:31.326Z,63.39
2017-09-06T20:27:58.908Z,64.05
2017-09-06T20:30:26.491Z,64.77
2017-09-06T20:32:54.276Z,63.30
2017-09-06T20:35:21.871Z,63.80
2017-09-06T20:37:50.160Z,64.21
2017-09-06T20:40:17.727Z,63.99
2017-09-06T20:42:45.327Z,64.10
2017-09-06T20:45:12.924Z,65.07
2017-09-06T20:47:40.510Z,64.72
2017-09-06T20:50:08.105Z,64.94
2017-09-06T20:52:35.809Z,64.80
2017-09-06T20:55:03.401Z,65.38
2017-09-06T20:57:31.019Z,65.90
2017-09-06T20:59:58.676Z,65.23
2017-09-06T21:02:26.282Z,65.64
2017-09-06T21:04:53.852Z,65.04
2017-09-06T21:07:21.411Z,65.48
2017-09-06T21:09:48.988Z,65.14
2017-09-06T21:12:16.560Z,65.88
2017-09-06T21:14:44.594Z,65.42
2017-09-06T21:17:12.753Z,65.37
2017-09-06T21:19:40.316Z,65.94
2017-09-06T21:22:07.939Z,65.89
2017-09-06T21:24:35.671Z,65.65
2017-09-06T21:27:03.277Z,66.43
2017-09-06T21:29:30.877Z,65.72
2017-09-06T21:31:58.483Z,66.90
2017-09-06T21:34:26.078Z,65.96
2017-09-06T21:36:53.773Z,67.36
2017-09-06T21:39:21.325Z,66.73
2017-09-06T21:41:48.933Z,67.02
2017-09-06T21:44:16.982Z,67.70
2017-09-06T21:46:44.925Z,66.36
2017-09-06T21:49:12.500Z,67.53
2017-09-06T21:51:40.055Z,66.92
2017-09-06T21:54:07.642Z,68.26
2017-09-06T21:56:35.208Z,68.32
2017-09-06T21:59:02.819Z,68.23
2017-09-06T22:01:30.443Z,69.00
2017-09-06T22:03:58.004Z,68.47
2017-09-06T22:06:25.585Z,68.46
2017-09-06T22:08:53.570Z,68.07
2017-09-06T22:11:21.184Z,68.69
2017-09-06T22:13:48.742Z,69.04
2017-09-06T22:16:16.307Z,69.68
2017-09-06T22:18:43.871Z,70.06
2017-09-06T22:21:11.521Z,69.65
2017-09-06T22:23:39.144Z,69.65
2017-09-06T22:26:06.717Z,69.63
2017-09-06T22:28:34.312Z,69.78
2017-09-06T22:31:01.880Z,70.20
2017-09-06T22:33:29.468Z,70.42
2017-09-06T22:35:57.110Z,70.12
2017-09-06T22:38:24.735Z,69.22
2017-09-06T22:40:52.321Z,70.24
2017-09-06T22:43:19.988Z,70.20
2017-09-06T22:45:48.607Z,69.36
2017-09-06T22:48:16.202Z,71.04
2017-09-06T22:50:43.760Z,70.70
2017-09-06T22:53:11.486Z,70.64
2017-09-06T22:55:39.061Z,70.28
2017-09-06T22:58:06.729Z,70.05
2017-09-06T23:00:34.328Z,70.68
2017-09-06T23:03:03.398Z,70.63
2017-09-06T23:05:31.265Z,70.91
2017-09-06T23:07:58.849Z,70.98
2017-09-06T23:10:26.401Z,71.10
2017-09-06T23:12:54.021Z,71.62
2017-09-06T23:15:21.575Z,71.35
2017-09-06T23:17:49.163Z,71.00
2017-09-06T23:20:16.860Z,71.26
2017-09-06T23:22:44.486Z,71.31
2017-09-06T23:25:12.044Z,71.69
2017-09-06T23:27:39.679Z,71.67
2017-09-06T23:30:07.370Z,71.37
2017-09-06T23:32:34.987Z,71.34
2017-09-06T23:35:03.666Z,71.17
2017-09-06T23:37:31.280Z,70.86
2017-09-06T23:39:58.884Z,70.89
2017-09-06T23:42:26.464Z,70.99
2017-09-06T23:44:54.032Z,71.19
2017-09-06T23:47:21.637Z,71.84
2017-09-06T23:49:50.634Z,71.96
2017-09-06T23:52:18.566Z,72.45
2017-09-06T23:54:46.161Z,72.40
2017-09-06T23:57:16.244Z,72.50
2017-09-06T23:59:43.833Z,72.53
